createdAt,value
2023-04-22T00:00:09.287Z,5.34
2023-04-22T00:04:31.466Z,5.38
2023-04-22T00:08:33.564Z,5.47
2023-04-22T00:12:35.717Z,5.49
2023-04-22T00:16:38.382Z,5.43
2023-04-22T00:20:43.690Z,5.29
2023-04-22T00:24:45.873Z,5.23
2023-04-22T00:28:47.941Z,5.20
2023-04-22T00:32:49.947Z,5.21
2023-04-22T00:36:52.070Z,5.19
2023-04-22T00:40:54.131Z,5.06
2023-04-22T00:44:56.970Z,5.06
2023-04-22T00:49:00.028Z,5.08
2023-04-22T00:53:02.024Z,4.90
2023-04-22T00:57:05.355Z,4.96
2023-04-22T01:01:07.531Z,4.84
2023-04-22T01:05:10.169Z,4.99
2023-04-22T01:09:12.274Z,4.88
2023-04-22T01:13:13.970Z,4.66
2023-04-22T01:17:16.845Z,4.63
2023-04-22T01:21:19.508Z,4.67
2023-04-22T01:25:21.741Z,4.61
2023-04-22T01:29:24.339Z,4.74
2023-04-22T01:33:26.761Z,4.77
2023-04-22T01:37:29.127Z,4.68
2023-04-22T01:41:31.401Z,4.45
2023-04-22T01:45:33.677Z,4.44
2023-04-22T01:49:35.961Z,4.41
2023-04-22T01:53:37.989Z,4.32
2023-04-22T01:57:40.128Z,4.19
2023-04-22T02:01:42.165Z,4.10
2023-04-22T02:05:44.390Z,4.09
2023-04-22T02:09:47.784Z,4.08
2023-04-22T02:13:51.289Z,3.99
2023-04-22T02:17:53.321Z,4.01
2023-04-22T02:21:55.726Z,4.00
2023-04-22T02:25:57.878Z,4.11
2023-04-22T02:30:00.004Z,3.98
2023-04-22T02:34:02.114Z,3.92
2023-04-22T02:38:04.230Z,3.83
2023-04-22T02:42:06.308Z,3.84
2023-04-22T02:46:13.120Z,3.79
2023-04-22T02:50:15.883Z,3.71
2023-04-22T02:54:18.035Z,3.69
2023-04-22T02:58:20.030Z,3.65
2023-04-22T03:02:22.136Z,3.61
2023-04-22T03:06:40.976Z,3.72
2023-04-22T03:10:43.382Z,3.72
2023-04-22T03:14:45.445Z,3.52
2023-04-22T03:18:47.853Z,3.50
2023-04-22T03:22:50.184Z,3.57
2023-04-22T03:26:52.296Z,3.58
2023-04-22T03:30:54.366Z,3.54
2023-04-22T03:34:57.141Z,3.65
2023-04-22T03:38:59.191Z,3.75
2023-04-22T03:43:03.805Z,3.56
2023-04-22T03:47:06.909Z,3.52
2023-04-22T03:51:15.629Z,3.64
2023-04-22T03:55:17.982Z,3.84
2023-04-22T03:59:21.632Z,3.97
2023-04-22T04:03:24.678Z,4.05
2023-04-22T04:07:28.083Z,4.15
2023-04-22T04:11:30.901Z,4.10
2023-04-22T04:15:35.642Z,4.37
2023-04-22T04:19:38.874Z,4.55
2023-04-22T04:23:41.891Z,4.71
2023-04-22T04:27:44.231Z,4.72
2023-04-22T04:31:49.941Z,4.86
2023-04-22T04:35:52.574Z,5.10
2023-04-22T04:39:59.388Z,5.52
2023-04-22T04:44:10.458Z,5.73
2023-04-22T04:48:14.950Z,6.10
2023-04-22T04:52:22.696Z,6.37
2023-04-22T04:56:25.081Z,6.79
2023-04-22T05:00:27.732Z,7.11
2023-04-22T05:04:30.047Z,7.52
2023-04-22T05:08:32.559Z,7.70
2023-04-22T05:12:41.370Z,8.14
2023-04-22T05:16:47.765Z,8.30
2023-04-22T05:20:50.608Z,8.54
2023-04-22T05:24:54.913Z,8.71
2023-04-22T05:28:57.332Z,8.93
2023-04-22T05:32:59.573Z,9.23
2023-04-22T05:37:05.289Z,9.48
2023-04-22T05:41:10.374Z,9.72
2023-04-22T05:45:12.397Z,9.96
2023-04-22T05:49:15.616Z,10.12
2023-04-22T05:53:35.751Z,10.43
2023-04-22T05:57:38.401Z,10.48
2023-04-22T06:01:48.215Z,10.64
2023-04-22T06:05:54.607Z,10.78
2023-04-22T06:10:04.007Z,10.95
2023-04-22T06:14:07.143Z,11.31
2023-04-22T06:18:09.251Z,11.50
2023-04-22T06:22:11.450Z,11.77
2023-04-22T06:26:15.981Z,11.90
2023-04-22T06:30:18.539Z,12.25
2023-04-22T06:34:21.264Z,12.48
2023-04-22T06:38:23.393Z,12.74
2023-04-22T06:42:45.689Z,12.98
2023-04-22T06:47:06.411Z,13.10
2023-04-22T06:51:24.301Z,13.53
2023-04-22T06:55:26.523Z,13.83
2023-04-22T06:59:28.545Z,14.06
2023-04-22T07:03:30.726Z,14.10
2023-04-22T07:07:40.682Z,14.49
2023-04-22T07:11:44.908Z,14.80
2023-04-22T07:15:54.540Z,14.92
2023-04-22T07:19:56.896Z,15.15
2023-04-22T07:23:58.987Z,15.49
2023-04-22T07:28:01.031Z,15.76
2023-04-22T07:32:03.378Z,15.82
2023-04-22T07:36:05.764Z,16.00
2023-04-22T07:40:11.832Z,16.11
2023-04-22T07:44:17.372Z,16.31
2023-04-22T07:48:19.411Z,16.49
2023-04-22T07:52:21.445Z,16.75
2023-04-22T07:56:23.702Z,16.74
2023-04-22T08:00:25.819Z,17.02
2023-04-22T08:04:28.176Z,17.05
2023-04-22T08:08:30.510Z,17.03
2023-04-22T08:12:32.542Z,17.06
2023-04-22T08:16:34.619Z,17.34
2023-04-22T08:20:36.653Z,17.30
2023-04-22T08:24:38.976Z,17.40
2023-04-22T08:28:42.378Z,17.58
2023-04-22T08:32:44.742Z,17.57
2023-04-22T08:36:47.067Z,17.76
2023-04-22T08:40:49.161Z,17.70
2023-04-22T08:44:52.722Z,17.70
2023-04-22T08:48:55.215Z,18.04
2023-04-22T08:52:57.283Z,17.97
2023-04-22T08:57:01.309Z,18.18
2023-04-22T09:01:03.896Z,18.42
2023-04-22T09:05:08.988Z,18.41
2023-04-22T09:09:11.124Z,18.29
2023-04-22T09:13:13.993Z,18.21
2023-04-22T09:17:18.028Z,18.24
2023-04-22T09:21:20.133Z,18.44
2023-04-22T09:25:24.539Z,18.33
2023-04-22T09:29:30.780Z,18.50
2023-04-22T09:33:33.653Z,18.65
2023-04-22T09:37:46.518Z,18.51
2023-04-22T09:41:55.045Z,18.62
2023-04-22T09:45:59.791Z,18.70
2023-04-22T09:50:04.663Z,18.77
2023-04-22T09:54:11.275Z,18.70
2023-04-22T09:58:14.880Z,18.69
2023-04-22T10:02:16.992Z,18.71
2023-04-22T10:06:19.308Z,18.73
2023-04-22T10:10:22.407Z,19.29
2023-04-22T10:14:25.994Z,19.04
2023-04-22T10:18:29.796Z,19.44
2023-04-22T10:22:34.227Z,19.47
2023-04-22T10:26:48.643Z,19.53
2023-04-22T10:30:51.029Z,19.42
2023-04-22T10:35:14.473Z,19.67
2023-04-22T10:39:17.640Z,19.54
2023-04-22T10:43:19.927Z,19.87
2023-04-22T10:47:26.318Z,19.84
2023-04-22T10:51:44.752Z,19.80
2023-04-22T10:55:53.497Z,19.74
2023-04-22T10:59:57.812Z,19.61
2023-04-22T11:04:20.887Z,19.54
2023-04-22T11:08:28.315Z,20.04
2023-04-22T11:12:39.230Z,20.31
2023-04-22T11:16:46.828Z,20.25
2023-04-22T11:20:50.696Z,20.39
2023-04-22T11:24:56.311Z,20.42
2023-04-22T11:29:00.557Z,20.40
2023-04-22T11:33:02.585Z,20.39
2023-04-22T11:37:05.040Z,20.40
2023-04-22T11:41:07.225Z,20.16
2023-04-22T11:45:09.978Z,20.25
2023-04-22T11:49:15.513Z,20.19
2023-04-22T11:53:20.944Z,20.34
2023-04-22T11:57:22.951Z,20.48
2023-04-22T12:01:24.956Z,20.19
2023-04-22T12:05:37.443Z,20.44
2023-04-22T12:09:40.059Z,20.91
2023-04-22T12:13:46.326Z,21.03
2023-04-22T12:17:50.869Z,20.95
2023-04-22T12:21:58.761Z,21.17
2023-04-22T12:26:00.822Z,21.01
2023-04-22T12:30:04.264Z,20.91
2023-04-22T12:34:06.704Z,20.93
2023-04-22T12:38:08.508Z,20.78
2023-04-22T12:42:11.309Z,20.61
2023-04-22T12:46:13.351Z,20.83
2023-04-22T12:50:15.929Z,21.35
2023-04-22T12:54:19.844Z,21.54
2023-04-22T12:58:21.997Z,21.72
2023-04-22T13:02:24.418Z,21.74
2023-04-22T13:06:26.998Z,21.67
2023-04-22T13:10:30.087Z,21.43
2023-04-22T13:14:32.235Z,21.44
2023-04-22T13:18:34.289Z,21.79
2023-04-22T13:22:36.547Z,21.85
2023-04-22T13:26:39.020Z,21.60
2023-04-22T13:30:41.303Z,21.63
2023-04-22T13:34:45.909Z,21.85
2023-04-22T13:38:47.921Z,22.21
2023-04-22T13:42:49.969Z,22.20
2023-04-22T13:46:52.020Z,22.30
2023-04-22T13:50:53.994Z,22.28
2023-04-22T13:54:56.084Z,22.26
2023-04-22T13:58:58.579Z,22.34
2023-04-22T14:03:01.216Z,22.55
2023-04-22T14:07:04.073Z,22.34
2023-04-22T14:11:07.900Z,22.61
2023-04-22T14:15:11.050Z,22.52
2023-04-22T14:19:14.395Z,22.22
2023-04-22T14:23:17.212Z,22.39
2023-04-22T14:27:19.402Z,22.32
2023-04-22T14:31:21.958Z,22.21
2023-04-22T14:35:24.205Z,22.47
2023-04-22T14:39:26.271Z,22.70
2023-04-22T14:43:28.374Z,22.89
2023-04-22T14:47:30.508Z,22.62
2023-04-22T14:51:32.717Z,22.66
2023-04-22T14:55:35.718Z,22.41
2023-04-22T14:59:38.131Z,22.34
2023-04-22T15:03:40.568Z,22.57
2023-04-22T15:07:42.888Z,22.38
2023-04-22T15:11:45.096Z,22.32
2023-04-22T15:15:47.291Z,22.18
2023-04-22T15:19:50.185Z,22.16
2023-04-22T15:23:52.295Z,22.64
2023-04-22T15:27:56.610Z,22.75
2023-04-22T15:31:58.819Z,24.40
2023-04-22T15:36:01.709Z,25.57
2023-04-22T15:40:05.950Z,26.56
2023-04-22T15:44:09.221Z,26.36
2023-04-22T15:48:12.196Z,26.97
2023-04-22T15:52:14.272Z,26.34
2023-04-22T15:56:16.387Z,26.43
2023-04-22T16:00:19.387Z,26.51
2023-04-22T16:04:21.624Z,25.25
2023-04-22T16:08:23.815Z,24.82
2023-04-22T16:12:26.006Z,23.69
2023-04-22T16:16:28.252Z,22.66
2023-04-22T16:20:31.075Z,21.82
2023-04-22T16:24:33.135Z,21.46
2023-04-22T16:28:35.333Z,21.10
2023-04-22T16:32:37.555Z,20.88
2023-04-22T16:36:39.559Z,20.41
2023-04-22T16:40:41.584Z,20.04
2023-04-22T16:44:43.645Z,19.91
2023-04-22T16:48:45.689Z,19.55
2023-04-22T16:52:47.851Z,19.43
2023-04-22T16:56:49.919Z,19.19
2023-04-22T17:00:51.954Z,19.09
2023-04-22T17:04:54.124Z,18.93
2023-04-22T17:08:56.136Z,18.56
2023-04-22T17:12:58.556Z,18.38
2023-04-22T17:17:00.818Z,18.12
2023-04-22T17:21:03.201Z,17.79
2023-04-22T17:25:05.825Z,17.54
2023-04-22T17:29:07.994Z,17.31
2023-04-22T17:33:10.101Z,17.09
2023-04-22T17:37:12.033Z,16.99
2023-04-22T17:41:14.145Z,16.72
2023-04-22T17:45:16.234Z,16.44
2023-04-22T17:49:18.289Z,16.17
2023-04-22T17:53:20.393Z,15.89
2023-04-22T17:57:22.418Z,15.62
2023-04-22T18:01:25.521Z,15.36
2023-04-22T18:05:27.866Z,14.99
2023-04-22T18:09:29.818Z,14.86
2023-04-22T18:13:32.850Z,14.67
2023-04-22T18:17:34.943Z,14.30
2023-04-22T18:21:41.613Z,14.09
2023-04-22T18:25:49.381Z,13.98
2023-04-22T18:29:51.530Z,13.77
2023-04-22T18:33:53.661Z,13.58
2023-04-22T18:37:55.690Z,13.24
2023-04-22T18:41:57.719Z,13.10
2023-04-22T18:46:01.024Z,12.87
2023-04-22T18:50:03.488Z,12.60
2023-04-22T18:54:05.912Z,12.56
2023-04-22T18:58:08.009Z,12.50
2023-04-22T19:02:12.475Z,12.34
2023-04-22T19:06:14.658Z,12.17
2023-04-22T19:10:16.785Z,11.97
2023-04-22T19:14:18.815Z,11.81
2023-04-22T19:18:21.088Z,11.75
2023-04-22T19:22:23.303Z,11.66
2023-04-22T19:26:26.410Z,11.54
2023-04-22T19:30:28.053Z,11.41
2023-04-22T19:34:30.410Z,11.17
2023-04-22T19:38:32.462Z,11.04
2023-04-22T19:42:34.561Z,11.06
2023-04-22T19:46:38.269Z,10.90
2023-04-22T19:50:43.508Z,10.83
2023-04-22T19:54:47.782Z,10.69
2023-04-22T19:58:50.184Z,10.62
2023-04-22T20:02:52.518Z,10.55
2023-04-22T20:06:55.320Z,10.44
2023-04-22T20:10:58.470Z,10.30
2023-04-22T20:15:01.920Z,10.20
2023-04-22T20:19:04.574Z,10.13
2023-04-22T20:23:10.595Z,10.23
2023-04-22T20:27:12.886Z,10.04
2023-04-22T20:31:20.710Z,9.87
2023-04-22T20:35:23.173Z,9.99
2023-04-22T20:39:26.172Z,9.93
2023-04-22T20:43:28.187Z,9.83
2023-04-22T20:47:30.299Z,9.72
2023-04-22T20:51:32.318Z,9.77
2023-04-22T20:55:36.847Z,9.64
2023-04-22T20:59:39.230Z,9.57
2023-04-22T21:03:41.850Z,9.56
2023-04-22T21:07:46.942Z,9.55
2023-04-22T21:11:50.124Z,9.43
2023-04-22T21:16:03.489Z,9.31
2023-04-22T21:20:06.552Z,9.20
2023-04-22T21:24:09.327Z,8.98
2023-04-22T21:28:11.680Z,8.99
2023-04-22T21:32:14.416Z,8.80
2023-04-22T21:36:16.620Z,8.79
2023-04-22T21:40:18.730Z,8.92
2023-04-22T21:44:20.949Z,8.87
2023-04-22T21:48:22.941Z,9.01
2023-04-22T21:52:25.075Z,9.05
2023-04-22T21:56:27.564Z,8.95
2023-04-22T22:00:30.789Z,8.86
2023-04-22T22:04:33.049Z,8.75
2023-04-22T22:08:36.003Z,8.60
2023-04-22T22:12:38.133Z,8.56
2023-04-22T22:16:40.302Z,8.51
2023-04-22T22:20:42.392Z,8.48
2023-04-22T22:24:45.547Z,8.38
2023-04-22T22:28:47.684Z,8.29
2023-04-22T22:32:49.903Z,8.25
2023-04-22T22:36:52.115Z,8.29
2023-04-22T22:40:54.413Z,8.18
2023-04-22T22:44:57.525Z,8.12
2023-04-22T22:48:59.583Z,7.94
2023-04-22T22:53:01.722Z,7.93
2023-04-22T22:57:07.729Z,7.77
2023-04-22T23:01:09.931Z,7.80
2023-04-22T23:05:12.844Z,7.61
2023-04-22T23:09:18.823Z,7.62
2023-04-22T23:13:21.045Z,7.51
2023-04-22T23:17:23.259Z,7.54
2023-04-22T23:21:26.342Z,7.32
2023-04-22T23:25:28.901Z,7.29
2023-04-22T23:29:31.562Z,7.37
2023-04-22T23:33:39.756Z,7.30
2023-04-22T23:37:46.878Z,7.34
2023-04-22T23:41:48.983Z,7.23
2023-04-22T23:45:51.025Z,7.19
2023-04-22T23:49:53.106Z,7.18
2023-04-22T23:53:55.310Z,7.14
2023-04-22T23:57:57.934Z,7.07
